Big Bear Station Historical Data
Daily Summary for January 14, 2017 Units:  English    Metric   Both
« Previous Day
Next Day »
Daily Weekly Monthly Yearly Custom
  High: Low: Average:
Temperature: 39.0 °F 30.0 °F 33.3 °F
Dew Point: 34.6 °F 29.3 °F 31.8 °F
Humidity: 99 % 84 % 94 %
Wind Speed: 4.2 mph 0.0 mph 0.6 mph
Wind Gust: -999.0 mph - -
Wind:- - WSW
Pressure: 23.46 in 23.41 in -
Precipitation: 0.36 in    
Historical Graphs
 
 
Tabular Data for January 14, 2017
Time Temperature Dew Point Pressure Wind Wind Speed Wind Gust Humidity Rainfall Rate (Hourly)
00:12 32.0 °F 31.8 °F 23.43 in Calm   -999.0 mph 99 % 0 in
00:28 32.0 °F 31.8 °F 23.42 in Calm   -999.0 mph 99 % 0 in
00:43 32.0 °F 31.8 °F 23.42 in Calm   -999.0 mph 99 % 0 in
00:58 32.0 °F 31.8 °F 23.42 in Calm   -999.0 mph 99 % 0 in
01:13 32.0 °F 31.8 °F 23.43 in Calm   -999.0 mph 99 % 0 in
01:28 32.0 °F 31.8 °F 23.43 in Calm   -999.0 mph 99 % 0 in
01:43 32.0 °F 31.8 °F 23.43 in Calm   -999.0 mph 99 % 0 in
01:59 32.0 °F 31.8 °F 23.43 in Calm   -999.0 mph 99 % 0 in
02:14 32.0 °F 31.8 °F 23.44 in Calm   -999.0 mph 99 % 0 in
02:29 31.6 °F 31.4 °F 23.43 in Calm   -999.0 mph 99 % 0 in
02:44 31.8 °F 31.6 °F 23.43 in Calm   -999.0 mph 99 % 0 in
03:00 31.8 °F 31.6 °F 23.43 in Calm   -999.0 mph 99 % 0 in
03:15 31.8 °F 31.6 °F 23.43 in Calm   -999.0 mph 99 % 0 in
03:30 31.8 °F 31.6 °F 23.43 in Calm   -999.0 mph 99 % 0 in
03:45 31.8 °F 31.6 °F 23.43 in Calm   -999.0 mph 99 % 0 in
04:00 31.8 °F 31.6 °F 23.43 in Calm   -999.0 mph 99 % 0 in
04:16 31.8 °F 31.6 °F 23.43 in Calm   -999.0 mph 99 % 0 in
04:31 31.8 °F 31.6 °F 23.42 in Calm   -999.0 mph 99 % 0 in
04:46 31.8 °F 31.6 °F 23.43 in Calm   -999.0 mph 99 % 0 in
05:01 31.8 °F 31.6 °F 23.43 in Calm   -999.0 mph 99 % 0 in
05:16 31.8 °F 31.6 °F 23.43 in Calm   -999.0 mph 99 % 0 in
05:32 31.8 °F 31.6 °F 23.43 in Calm   -999.0 mph 99 % 0 in
05:47 31.8 °F 31.6 °F 23.44 in Calm   -999.0 mph 99 % 0 in
06:02 31.6 °F 31.4 °F 23.44 in Calm   -999.0 mph 99 % 0 in
06:17 31.6 °F 31.4 °F 23.45 in Calm   -999.0 mph 99 % 0 in
06:32 31.6 °F 31.4 °F 23.45 in Calm   -999.0 mph 99 % 0 in
06:48 31.6 °F 31.4 °F 23.45 in Calm   -999.0 mph 99 % 0 in
07:03 31.6 °F 31.4 °F 23.45 in Calm   -999.0 mph 99 % 0 in
07:18 31.6 °F 31.4 °F 23.45 in Calm   -999.0 mph 99 % 0 in
07:33 31.6 °F 31.1 °F 23.45 in Calm   -999.0 mph 98 % 0 in
07:49 32.0 °F 31.2 °F 23.45 in Calm   -999.0 mph 97 % 0 in
08:04 32.7 °F 31.4 °F 23.45 in Calm   -999.0 mph 95 % 0 in
08:19 32.9 °F 31.6 °F 23.45 in Calm   -999.0 mph 95 % 0 in
08:34 32.9 °F 31.4 °F 23.45 in Calm   -999.0 mph 94 % 0 in
08:49 33.8 °F 32.0 °F 23.45 in Calm   -999.0 mph 93 % 0 in
09:05 34.2 °F 31.8 °F 23.45 in Calm   -999.0 mph 91 % 0 in
09:20 34.9 °F 32.0 °F 23.46 in Calm   -999.0 mph 89 % 0 in
09:35 36.1 °F 32.6 °F 23.46 in Calm   -999.0 mph 87 % 0 in
10:05 36.1 °F 32.3 °F 23.46 in Calm   -999.0 mph 86 % 0 in
10:21 35.6 °F 32.4 °F 23.46 in Calm   -999.0 mph 88 % 0 in
10:36 34.7 °F 31.8 °F 23.45 in Calm   -999.0 mph 89 % 0 in
10:51 35.2 °F 32.3 °F 23.45 in Calm   -999.0 mph 89 % 0 in
11:06 35.4 °F 32.5 °F 23.44 in Calm   -999.0 mph 89 % 0 in
11:21 36.0 °F 32.8 °F 23.44 in North 2.7 mph -999.0 mph 88 % 0 in
11:37 35.8 °F 32.6 °F 23.43 in Calm   -999.0 mph 88 % 0 in
11:52 36.5 °F 33.3 °F 23.42 in NW 2.2 mph -999.0 mph 88 % 0 in
12:07 37.9 °F 33.8 °F 23.42 in NNE 1.1 mph -999.0 mph 85 % 0 in
12:22 38.3 °F 34.2 °F 23.42 in North 2.2 mph -999.0 mph 85 % 0 in
12:37 37.2 °F 33.1 °F 23.41 in Calm   -999.0 mph 85 % 0 in
12:53 37.2 °F 33.4 °F 23.41 in Calm   -999.0 mph 86 % 0 in
13:08 37.6 °F 33.8 °F 23.41 in Calm   -999.0 mph 86 % 0 in
13:23 37.8 °F 34.0 °F 23.41 in Calm   -999.0 mph 86 % 0 in
13:38 38.8 °F 34.4 °F 23.41 in East 1.1 mph -999.0 mph 84 % 0 in
13:54 39.0 °F 34.6 °F 23.41 in NNW 1.1 mph -999.0 mph 84 % 0 in
14:09 36.5 °F 33.0 °F 23.41 in WNW 3.2 mph -999.0 mph 87 % 0 in
14:24 35.6 °F 32.4 °F 23.42 in NNE 1.7 mph -999.0 mph 88 % 0 in
14:40 35.6 °F 32.1 °F 23.42 in NW 2.2 mph -999.0 mph 87 % 0 in
14:55 35.1 °F 32.2 °F 23.41 in NNW 4.2 mph -999.0 mph 89 % 0 in
15:10 36.9 °F 33.1 °F 23.42 in ENE 2.7 mph -999.0 mph 86 % 0 in
15:25 36.5 °F 32.7 °F 23.42 in NW 2.2 mph -999.0 mph 86 % 0 in
15:41 37.2 °F 33.4 °F 23.42 in Calm   -999.0 mph 86 % 0 in
15:56 37.0 °F 33.2 °F 23.42 in NW 2.2 mph -999.0 mph 86 % 0 in
16:11 36.7 °F 32.9 °F 23.42 in Calm   -999.0 mph 86 % 0 in
16:26 36.0 °F 32.5 °F 23.42 in Calm   -999.0 mph 87 % 0 in
16:41 35.1 °F 32.5 °F 23.42 in Calm   -999.0 mph 90 % 0 in
16:57 33.8 °F 31.7 °F 23.42 in Calm   -999.0 mph 92 % 0 in
17:12 33.3 °F 31.2 °F 23.42 in NNW 1.7 mph -999.0 mph 92 % 0 in
17:28 33.1 °F 31.3 °F 23.42 in Calm   -999.0 mph 93 % 0 in
17:43 32.7 °F 31.2 °F 23.43 in Calm   -999.0 mph 94 % 0 in
17:58 32.7 °F 31.4 °F 23.43 in Calm   -999.0 mph 95 % 0 in
18:13 32.7 °F 31.4 °F 23.43 in Calm   -999.0 mph 95 % 0 in
18:29 32.7 °F 31.4 °F 23.43 in Calm   -999.0 mph 95 % 0 in
18:44 32.7 °F 31.4 °F 23.43 in West 1.7 mph -999.0 mph 95 % 0 in
18:59 32.7 °F 31.4 °F 23.43 in North 3.2 mph -999.0 mph 95 % 0 in
19:14 33.1 °F 31.8 °F 23.43 in NNW 1.7 mph -999.0 mph 95 % 0 in
19:29 32.9 °F 31.6 °F 23.44 in Calm   -999.0 mph 95 % 0 in
19:45 33.1 °F 31.6 °F 23.43 in Calm   -999.0 mph 94 % 0 in
20:15 32.0 °F 31.2 °F 23.43 in SSE 2.2 mph -999.0 mph 97 % 0 in
20:30 31.3 °F 30.8 °F 23.43 in Calm   -999.0 mph 98 % 0 in
20:45 31.1 °F 30.6 °F 23.43 in Calm   -999.0 mph 98 % 0 in
21:01 30.7 °F 30.5 °F 23.42 in Calm   -999.0 mph 99 % 0 in
21:16 30.7 °F 30.5 °F 23.43 in Calm   -999.0 mph 99 % 0 in
21:31 30.6 °F 30.4 °F 23.42 in NW 2.2 mph -999.0 mph 99 % 0 in
21:46 30.6 °F 30.4 °F 23.42 in SSW 1.7 mph -999.0 mph 99 % 0 in
22:01 30.9 °F 30.7 °F 23.43 in SSE 2.2 mph -999.0 mph 99 % 0 in
22:17 30.7 °F 30.5 °F 23.42 in SSE 2.7 mph -999.0 mph 99 % 0 in
22:33 30.9 °F 30.7 °F 23.42 in Calm   -999.0 mph 99 % 0 in
22:48 30.6 °F 30.4 °F 23.42 in SSW 1.7 mph -999.0 mph 99 % 0 in
23:03 30.2 °F 29.7 °F 23.42 in ESE 3.2 mph -999.0 mph 98 % 0 in
23:18 30.6 °F 29.9 °F 23.42 in Calm   -999.0 mph 97 % 0 in
23:34 30.0 °F 29.3 °F 23.42 in Calm   -999.0 mph 97 % 0 in
23:49 30.0 °F 29.3 °F 23.41 in Calm   -999.0 mph 97 % 0 in
Big Bear CA Weather
Compliments of Weather Underground - 1.5 mb